createdAt,value
2022-10-25T00:00:02.331Z,96251.69
2022-10-25T00:01:22.951Z,96251.59
2022-10-25T00:02:47.862Z,96253.50
2022-10-25T00:04:05.428Z,96256.22
2022-10-25T00:05:26.407Z,96252.72
2022-10-25T00:06:51.403Z,96252.56
2022-10-25T00:08:10.900Z,96254.13
2022-10-25T00:09:31.091Z,96255.94
2022-10-25T00:10:40.946Z,96256.91
2022-10-25T00:11:56.946Z,96256.09
2022-10-25T00:13:27.957Z,96262.22
2022-10-25T00:16:12.696Z,96249.91
2022-10-25T00:17:26.259Z,96255.00
2022-10-25T00:18:28.308Z,96255.84
2022-10-25T00:19:32.977Z,96256.03
2022-10-25T00:20:39.073Z,96260.50
2022-10-25T00:21:41.182Z,96256.31
2022-10-25T00:22:46.240Z,96255.59
2022-10-25T00:23:48.858Z,96257.28
2022-10-25T00:24:53.505Z,96246.53
2022-10-25T00:26:01.469Z,96244.16
2022-10-25T00:27:08.794Z,96255.75
2022-10-25T00:28:10.958Z,96243.56
2022-10-25T00:29:15.649Z,96251.47
2022-10-25T00:30:17.924Z,96249.78
2022-10-25T00:31:22.671Z,96248.25
2022-10-25T00:32:34.184Z,96248.50
2022-10-25T00:33:51.605Z,96250.84
2022-10-25T00:35:14.259Z,96243.44
2022-10-25T00:36:37.818Z,96246.78
2022-10-25T00:37:57.460Z,96245.91
2022-10-25T00:39:17.572Z,96248.31
2022-10-25T00:40:34.926Z,96252.56
2022-10-25T00:41:57.685Z,96248.00
2022-10-25T00:43:15.357Z,96247.06
2022-10-25T00:45:04.876Z,96247.72
2022-10-25T00:46:30.779Z,96243.19
2022-10-25T00:48:15.149Z,96246.28
2022-10-25T00:49:24.813Z,96253.63
2022-10-25T00:51:02.259Z,96243.91
2022-10-25T00:52:15.930Z,96254.00
2022-10-25T00:53:38.626Z,96245.94
2022-10-25T00:54:58.284Z,96250.78
2022-10-25T00:56:25.681Z,96258.38
2022-10-25T00:57:51.555Z,96253.03
2022-10-25T01:01:31.674Z,96250.84
2022-10-25T01:02:57.831Z,96246.50
2022-10-25T01:04:17.246Z,96247.03
2022-10-25T01:05:42.986Z,96245.84
2022-10-25T01:07:06.342Z,96239.69
2022-10-25T01:08:21.306Z,96239.75
2022-10-25T01:09:45.130Z,96242.47
2022-10-25T01:11:05.486Z,96236.63
2022-10-25T01:12:25.560Z,96232.91
2022-10-25T01:13:48.533Z,96235.69
2022-10-25T01:15:03.343Z,96243.41
2022-10-25T01:16:24.936Z,96236.47
2022-10-25T01:17:53.625Z,96240.81
2022-10-25T01:19:15.410Z,96238.09
2022-10-25T01:20:56.626Z,96232.81
2022-10-25T01:22:19.971Z,96232.66
2022-10-25T01:23:54.217Z,96234.13
2022-10-25T01:25:38.737Z,96232.47
2022-10-25T01:27:31.475Z,96232.47
2022-10-25T01:29:07.270Z,96234.84
2022-10-25T01:32:15.426Z,96234.00
2022-10-25T01:33:33.379Z,96236.66
2022-10-25T01:34:49.541Z,96246.19
2022-10-25T01:36:04.713Z,96241.78
2022-10-25T01:37:49.832Z,96241.84
2022-10-25T01:39:13.963Z,96235.97
2022-10-25T01:40:39.228Z,96233.59
2022-10-25T01:42:01.966Z,96237.84
2022-10-25T01:43:24.929Z,96242.34
2022-10-25T01:44:51.577Z,96237.00
2022-10-25T01:46:45.646Z,96236.22
2022-10-25T01:48:14.218Z,96238.09
2022-10-25T01:49:44.848Z,96237.16
2022-10-25T01:51:08.355Z,96234.56
2022-10-25T01:52:30.889Z,96235.34
2022-10-25T01:55:40.997Z,96232.59
2022-10-25T01:57:10.128Z,96239.53
2022-10-25T01:58:47.720Z,96237.00
2022-10-25T02:00:24.249Z,96234.56
2022-10-25T02:01:53.943Z,96237.50
2022-10-25T02:03:24.362Z,96242.28
2022-10-25T02:04:47.590Z,96240.09
2022-10-25T02:06:37.683Z,96243.16
2022-10-25T02:08:00.075Z,96250.50
2022-10-25T02:09:30.210Z,96248.19
2022-10-25T02:10:45.858Z,96239.84
2022-10-25T02:12:11.592Z,96239.22
2022-10-25T02:13:44.500Z,96239.53
2022-10-25T02:15:05.737Z,96242.41
2022-10-25T02:16:29.966Z,96251.28
2022-10-25T02:17:45.162Z,96242.69
2022-10-25T02:19:33.437Z,96251.31
2022-10-25T02:21:14.918Z,96243.50
2022-10-25T02:22:34.888Z,96249.34
2022-10-25T02:23:50.773Z,96251.84
2022-10-25T02:25:13.598Z,96248.22
2022-10-25T02:28:14.146Z,96247.25
2022-10-25T02:29:46.026Z,96238.50
2022-10-25T02:30:59.761Z,96241.06
2022-10-25T02:32:19.458Z,96249.38
2022-10-25T02:33:21.763Z,96242.47
2022-10-25T02:34:29.014Z,96239.88
2022-10-25T02:35:31.336Z,96239.59
2022-10-25T02:36:35.977Z,96244.63
2022-10-25T02:37:38.110Z,96240.28
2022-10-25T02:38:43.695Z,96239.22
2022-10-25T02:39:48.892Z,96239.84
2022-10-25T02:40:51.011Z,96232.91
2022-10-25T02:41:55.701Z,96237.31
2022-10-25T02:42:57.772Z,96236.47
2022-10-25T02:44:02.466Z,96243.94
2022-10-25T02:45:05.459Z,96238.91
2022-10-25T02:46:10.865Z,96238.09
2022-10-25T02:47:12.910Z,96245.50
2022-10-25T02:48:26.295Z,96246.19
2022-10-25T02:49:31.220Z,96248.84
2022-10-25T02:50:39.737Z,96246.19
2022-10-25T02:51:45.425Z,96236.22
2022-10-25T02:52:50.960Z,96244.09
2022-10-25T02:53:56.874Z,96237.25
2022-10-25T02:55:02.738Z,96236.22
2022-10-25T02:56:08.452Z,96243.03
2022-10-25T02:57:17.051Z,96237.78
2022-10-25T02:58:20.186Z,96243.88
2022-10-25T02:59:28.322Z,96238.56
2022-10-25T03:00:31.469Z,96236.88
2022-10-25T03:01:36.971Z,96242.81
2022-10-25T03:02:40.312Z,96242.00
2022-10-25T03:03:46.044Z,96237.34
2022-10-25T03:04:51.645Z,96233.72
2022-10-25T03:06:03.447Z,96237.19
2022-10-25T03:07:09.039Z,96245.75
2022-10-25T03:08:11.759Z,96246.56
2022-10-25T03:09:17.846Z,96239.59
2022-10-25T03:10:21.081Z,96240.34
2022-10-25T03:11:26.911Z,96241.03
2022-10-25T03:12:30.154Z,96239.38
2022-10-25T03:13:38.970Z,96238.31
2022-10-25T03:14:42.154Z,96243.34
2022-10-25T03:15:48.837Z,96240.84
2022-10-25T03:16:51.899Z,96241.50
2022-10-25T03:17:57.508Z,96240.59
2022-10-25T03:19:00.891Z,96237.16
2022-10-25T03:20:13.048Z,96235.56
2022-10-25T03:21:17.106Z,96232.97
2022-10-25T03:22:22.620Z,96232.97
2022-10-25T03:23:25.686Z,96232.97
2022-10-25T03:24:33.949Z,96232.75
2022-10-25T03:25:42.835Z,96234.41
2022-10-25T03:26:51.573Z,96237.94
2022-10-25T03:27:54.598Z,96243.97
2022-10-25T03:29:03.223Z,96231.91
2022-10-25T03:30:09.829Z,96233.75
2022-10-25T03:31:17.321Z,96236.47
2022-10-25T03:32:20.301Z,96244.31
2022-10-25T03:33:26.198Z,96239.38
2022-10-25T03:34:32.230Z,96242.13
2022-10-25T03:35:40.668Z,96238.91
2022-10-25T03:36:48.999Z,96244.13
2022-10-25T03:37:52.852Z,96245.06
2022-10-25T03:38:58.419Z,96238.91
2022-10-25T03:40:01.595Z,96242.38
2022-10-25T03:41:07.828Z,96241.69
2022-10-25T03:42:19.321Z,96242.53
2022-10-25T03:43:24.260Z,96242.66
2022-10-25T03:44:29.341Z,96244.63
2022-10-25T03:45:32.363Z,96244.50
2022-10-25T03:46:38.363Z,96251.56
2022-10-25T03:47:41.147Z,96240.66
2022-10-25T03:48:47.661Z,96251.22
2022-10-25T03:49:50.538Z,96250.41
2022-10-25T03:50:59.726Z,96250.41
2022-10-25T03:52:05.148Z,96250.25
2022-10-25T03:53:11.048Z,96253.47
2022-10-25T03:54:14.051Z,96245.47
2022-10-25T03:55:20.115Z,96247.03
2022-10-25T03:56:23.835Z,96249.66
2022-10-25T03:57:29.274Z,96246.19
2022-10-25T03:58:32.315Z,96241.91
2022-10-25T03:59:37.429Z,96247.94
2022-10-25T04:00:40.681Z,96243.44
2022-10-25T04:01:46.340Z,96241.78
2022-10-25T04:03:01.696Z,96246.03
2022-10-25T04:04:08.836Z,96249.41
2022-10-25T04:05:11.883Z,96252.91
2022-10-25T04:06:20.575Z,96249.41
2022-10-25T04:07:23.660Z,96251.91
2022-10-25T04:08:29.964Z,96255.44
2022-10-25T04:09:35.852Z,96254.34
2022-10-25T04:10:42.107Z,96254.28
2022-10-25T04:11:45.195Z,96250.56
2022-10-25T04:12:54.868Z,96258.56
2022-10-25T04:13:58.667Z,96255.97
2022-10-25T04:15:04.190Z,96257.50
2022-10-25T04:16:08.087Z,96252.25
2022-10-25T04:17:13.204Z,96255.81
2022-10-25T04:18:16.108Z,96250.63
2022-10-25T04:19:22.033Z,96257.50
2022-10-25T04:20:25.014Z,96256.59
2022-10-25T04:21:33.094Z,96257.13
2022-10-25T04:23:42.708Z,96258.88
2022-10-25T04:24:45.802Z,96258.88
2022-10-25T04:25:57.190Z,96256.44
2022-10-25T04:26:59.963Z,96254.00
2022-10-25T04:28:05.642Z,96254.00
2022-10-25T04:29:08.880Z,96255.66
2022-10-25T04:30:15.208Z,96259.34
2022-10-25T04:31:21.276Z,96260.38
2022-10-25T04:32:24.431Z,96261.28
2022-10-25T04:33:30.019Z,96264.09
2022-10-25T04:34:33.199Z,96260.50
2022-10-25T04:35:39.078Z,96261.38
2022-10-25T04:36:45.080Z,96260.38
2022-10-25T04:37:52.621Z,96264.72
2022-10-25T04:38:58.084Z,96262.06
2022-10-25T04:40:03.838Z,96260.31
2022-10-25T04:41:08.511Z,96256.41
2022-10-25T04:42:14.337Z,96257.38
2022-10-25T04:43:22.160Z,96263.50
2022-10-25T04:44:27.924Z,96269.56
2022-10-25T04:45:31.342Z,96262.91
2022-10-25T04:46:36.944Z,96263.22
2022-10-25T04:47:40.012Z,96258.22
2022-10-25T04:48:46.269Z,96256.41
2022-10-25T04:49:49.240Z,96267.63
2022-10-25T04:50:54.882Z,96264.53
2022-10-25T04:52:00.390Z,96264.53
2022-10-25T04:53:06.169Z,96268.81
2022-10-25T04:54:09.065Z,96273.03
2022-10-25T04:55:15.313Z,96270.44
2022-10-25T04:56:18.579Z,96271.41
2022-10-25T04:57:27.548Z,96273.03
2022-10-25T04:58:31.580Z,96269.47
2022-10-25T04:59:37.999Z,96273.72
2022-10-25T05:00:41.330Z,96264.19
2022-10-25T05:01:48.961Z,96269.50
2022-10-25T05:02:53.047Z,96276.31
2022-10-25T05:03:58.981Z,96283.16
2022-10-25T05:05:02.381Z,96274.63
2022-10-25T05:06:12.188Z,96279.31
2022-10-25T05:07:18.537Z,96281.34
2022-10-25T05:08:24.403Z,96279.13
2022-10-25T05:09:32.971Z,96277.66
2022-10-25T05:10:36.190Z,96282.34
2022-10-25T05:11:45.504Z,96284.50
2022-10-25T05:12:49.202Z,96288.81
2022-10-25T05:13:55.141Z,96284.38
2022-10-25T05:14:58.190Z,96288.81
2022-10-25T05:16:04.250Z,96298.78
2022-10-25T05:17:09.915Z,96294.41
2022-10-25T05:18:13.328Z,96290.28
2022-10-25T05:19:18.971Z,96293.88
2022-10-25T05:20:22.095Z,96291.56
2022-10-25T05:21:32.740Z,96298.81
2022-10-25T05:22:38.644Z,96295.69
2022-10-25T05:23:45.091Z,96293.38
2022-10-25T05:24:50.378Z,96296.22
2022-10-25T05:26:05.338Z,96294.66
2022-10-25T05:27:17.216Z,96297.91
2022-10-25T05:28:20.113Z,96302.94
2022-10-25T05:29:29.115Z,96300.88
2022-10-25T05:30:34.251Z,96304.25
2022-10-25T05:31:46.977Z,96300.88
2022-10-25T05:32:51.260Z,96302.19
2022-10-25T05:34:02.462Z,96303.28
2022-10-25T05:35:08.860Z,96302.19
2022-10-25T05:36:15.593Z,96298.03
2022-10-25T05:37:18.574Z,96303.84
2022-10-25T05:38:34.355Z,96306.13
2022-10-25T05:39:47.917Z,96297.13
2022-10-25T05:40:57.667Z,96296.47
2022-10-25T05:42:06.635Z,96295.97
2022-10-25T05:43:12.527Z,96304.34
2022-10-25T05:44:18.613Z,96301.00
2022-10-25T05:45:21.735Z,96304.47
2022-10-25T05:46:27.552Z,96301.69
2022-10-25T05:47:30.933Z,96307.97
2022-10-25T05:48:38.238Z,96306.31
2022-10-25T05:49:45.439Z,96308.13
2022-10-25T05:51:03.398Z,96305.59
2022-10-25T05:52:19.941Z,96309.94
2022-10-25T05:53:25.915Z,96310.72
2022-10-25T05:54:31.814Z,96309.78
2022-10-25T05:55:36.923Z,96309.53
2022-10-25T05:56:43.661Z,96304.63
2022-10-25T05:57:51.871Z,96304.75
2022-10-25T05:58:58.502Z,96313.28
2022-10-25T06:00:01.615Z,96306.41
2022-10-25T06:01:07.970Z,96313.56
2022-10-25T06:02:13.929Z,96309.41
2022-10-25T06:03:18.340Z,96312.97
2022-10-25T06:04:23.930Z,96312.13
2022-10-25T06:05:30.079Z,96317.44
2022-10-25T06:06:38.376Z,96314.06
2022-10-25T06:07:45.694Z,96326.97
2022-10-25T06:09:00.079Z,96320.53
2022-10-25T06:10:05.060Z,96317.03
2022-10-25T06:11:14.769Z,96322.22
2022-10-25T06:12:20.608Z,96321.19
2022-10-25T06:13:23.721Z,96330.09
2022-10-25T06:14:30.959Z,96321.34
2022-10-25T06:15:33.862Z,96326.06
2022-10-25T06:16:41.477Z,96314.56
2022-10-25T06:17:44.612Z,96317.00
2022-10-25T06:18:50.591Z,96325.56
2022-10-25T06:19:56.680Z,96318.63
2022-10-25T06:21:05.594Z,96322.84
2022-10-25T06:22:11.573Z,96318.38
2022-10-25T06:23:14.278Z,96317.31
2022-10-25T06:24:22.352Z,96321.47
2022-10-25T06:25:25.311Z,96317.66
2022-10-25T06:26:35.464Z,96326.03
2022-10-25T06:27:38.868Z,96324.91
2022-10-25T06:28:45.080Z,96324.63
2022-10-25T06:29:50.950Z,96323.63
2022-10-25T06:30:54.318Z,96321.88
2022-10-25T06:32:05.124Z,96328.75
2022-10-25T06:33:08.416Z,96332.88
2022-10-25T06:34:17.091Z,96326.88
2022-10-25T06:35:20.007Z,96332.72
2022-10-25T06:36:28.306Z,96333.56
2022-10-25T06:37:31.817Z,96339.53
2022-10-25T06:38:37.990Z,96341.16
2022-10-25T06:39:43.785Z,96343.59
2022-10-25T06:40:49.738Z,96340.84
2022-10-25T06:41:55.855Z,96344.91
2022-10-25T06:42:59.098Z,96348.91
2022-10-25T06:44:06.977Z,96344.63
2022-10-25T06:45:11.596Z,96349.66
2022-10-25T06:46:23.750Z,96346.72
2022-10-25T06:47:26.843Z,96351.13
2022-10-25T06:48:33.188Z,96347.69
2022-10-25T06:49:38.610Z,96349.41
2022-10-25T06:50:48.435Z,96350.63
2022-10-25T06:51:57.466Z,96349.78
2022-10-25T06:53:00.565Z,96346.41
2022-10-25T06:54:10.012Z,96352.59
2022-10-25T06:55:18.601Z,96359.31
2022-10-25T06:56:31.028Z,96358.72
2022-10-25T06:57:39.400Z,96363.75
2022-10-25T06:58:45.240Z,96357.75
2022-10-25T06:59:48.069Z,96353.56
2022-10-25T07:00:53.048Z,96350.84
2022-10-25T07:02:00.134Z,96350.22
2022-10-25T07:03:03.586Z,96348.56
2022-10-25T07:04:09.563Z,96353.66
2022-10-25T07:05:18.383Z,96352.81
2022-10-25T07:06:26.207Z,96357.25
2022-10-25T07:07:31.862Z,96355.41
2022-10-25T07:08:37.322Z,96350.06
2022-10-25T07:09:43.052Z,96350.22
2022-10-25T07:11:00.379Z,96347.69
2022-10-25T07:12:11.441Z,96355.41
2022-10-25T07:13:17.880Z,96362.44
2022-10-25T07:14:23.748Z,96364.97
2022-10-25T07:15:26.796Z,96370.16
2022-10-25T07:16:32.767Z,96365.66
2022-10-25T07:17:35.661Z,96365.34
2022-10-25T07:18:41.678Z,96363.81
2022-10-25T07:19:47.511Z,96363.66
2022-10-25T07:20:51.304Z,96370.22
2022-10-25T07:21:57.269Z,96361.69
2022-10-25T07:23:06.638Z,96362.53
2022-10-25T07:24:14.688Z,96368.56
2022-10-25T07:25:19.383Z,96369.22
2022-10-25T07:26:29.009Z,96369.69
2022-10-25T07:27:33.358Z,96366.09
2022-10-25T07:28:39.659Z,96361.84
2022-10-25T07:29:45.244Z,96369.38
2022-10-25T07:30:49.440Z,96373.75
2022-10-25T07:31:57.657Z,96367.66
2022-10-25T07:33:01.082Z,96374.44
2022-10-25T07:34:08.279Z,96369.94
2022-10-25T07:35:11.475Z,96370.75
2022-10-25T07:36:17.853Z,96374.88
2022-10-25T07:37:23.665Z,96373.53
2022-10-25T07:38:28.588Z,96368.22
2022-10-25T07:39:33.502Z,96371.06
2022-10-25T07:40:35.867Z,96374.19
2022-10-25T07:41:43.125Z,96377.81
2022-10-25T07:42:45.265Z,96373.06
2022-10-25T07:43:49.968Z,96374.34
2022-10-25T07:44:55.139Z,96371.88
2022-10-25T07:45:57.508Z,96374.69
2022-10-25T07:47:02.437Z,96375.72
2022-10-25T07:48:04.708Z,96373.66
2022-10-25T07:49:09.575Z,96378.78
2022-10-25T07:50:14.560Z,96370.91
2022-10-25T07:51:20.757Z,96373.72
2022-10-25T07:52:25.754Z,96371.75
2022-10-25T07:53:30.859Z,96372.84
2022-10-25T07:54:35.621Z,96370.75
2022-10-25T07:55:37.778Z,96375.84
2022-10-25T07:56:49.678Z,96378.69
2022-10-25T07:57:51.734Z,96380.00
2022-10-25T07:58:56.384Z,96375.38
2022-10-25T07:59:58.404Z,96376.50
2022-10-25T08:01:04.785Z,96383.53
2022-10-25T08:02:09.508Z,96381.75
2022-10-25T08:03:12.686Z,96376.88
2022-10-25T08:04:17.334Z,96380.91
2022-10-25T08:05:22.322Z,96385.63
2022-10-25T08:06:27.619Z,96391.41
2022-10-25T08:07:32.307Z,96385.34
2022-10-25T08:08:39.071Z,96390.34
2022-10-25T08:09:43.900Z,96381.03
2022-10-25T08:10:48.573Z,96398.28
2022-10-25T08:11:56.088Z,96396.88
2022-10-25T08:13:01.620Z,96383.53
2022-10-25T08:14:03.724Z,96396.41
2022-10-25T08:15:09.738Z,96383.34
2022-10-25T08:16:12.223Z,96387.41
2022-10-25T08:17:18.118Z,96386.50
2022-10-25T08:18:20.636Z,96385.91
2022-10-25T08:19:25.289Z,96391.34
2022-10-25T08:20:43.319Z,96380.38
2022-10-25T08:21:52.768Z,96381.38
2022-10-25T08:22:58.403Z,96384.31
2022-10-25T08:24:03.300Z,96382.56
2022-10-25T08:25:06.474Z,96380.59
2022-10-25T08:26:11.177Z,96376.50
2022-10-25T08:27:15.817Z,96382.63
2022-10-25T08:28:20.759Z,96380.66
2022-10-25T08:29:27.517Z,96382.31
2022-10-25T08:30:36.453Z,96384.25
2022-10-25T08:31:42.180Z,96373.22
2022-10-25T08:32:44.744Z,96375.72
2022-10-25T08:33:50.319Z,96382.53
2022-10-25T08:34:53.771Z,96380.47
2022-10-25T08:35:59.346Z,96377.13
2022-10-25T08:37:05.104Z,96385.53
2022-10-25T08:38:11.127Z,96392.28
2022-10-25T08:39:14.075Z,96393.16
2022-10-25T08:40:23.150Z,96385.06
2022-10-25T08:41:45.407Z,96387.81
2022-10-25T08:43:05.859Z,96385.50
2022-10-25T08:44:22.885Z,96388.97
2022-10-25T08:45:33.987Z,96388.97
2022-10-25T08:46:43.098Z,96390.00
2022-10-25T08:47:53.466Z,96388.38
2022-10-25T08:49:10.224Z,96388.25
2022-10-25T08:50:20.307Z,96384.94
2022-10-25T08:51:27.739Z,96385.59
2022-10-25T08:52:41.797Z,96389.94
2022-10-25T08:53:48.839Z,96390.97
2022-10-25T08:54:55.240Z,96389.44
2022-10-25T08:56:16.276Z,96383.50
2022-10-25T08:57:26.837Z,96385.63
2022-10-25T08:58:43.534Z,96386.81
2022-10-25T08:59:51.180Z,96392.31
2022-10-25T09:00:57.774Z,96384.56
2022-10-25T09:02:03.942Z,96387.88
2022-10-25T09:03:18.450Z,96388.22
2022-10-25T09:04:24.549Z,96394.94
2022-10-25T09:05:41.640Z,96384.19
2022-10-25T09:06:59.297Z,96397.56
2022-10-25T09:08:21.385Z,96388.88
2022-10-25T09:09:35.999Z,96390.03
2022-10-25T09:10:53.474Z,96391.50
2022-10-25T09:12:08.593Z,96387.06
2022-10-25T09:13:22.407Z,96386.06
2022-10-25T09:14:42.471Z,96390.59
2022-10-25T09:15:55.405Z,96385.50
2022-10-25T09:17:10.099Z,96388.50
2022-10-25T09:18:22.878Z,96389.66
2022-10-25T09:19:38.039Z,96387.06
2022-10-25T09:20:53.074Z,96389.28
2022-10-25T09:22:03.707Z,96377.78
2022-10-25T09:23:11.090Z,96382.94
2022-10-25T09:24:25.181Z,96389.81
2022-10-25T09:25:37.804Z,96382.19
2022-10-25T09:26:47.035Z,96384.16
2022-10-25T09:28:04.113Z,96380.28
2022-10-25T09:29:14.190Z,96386.09
2022-10-25T09:30:23.113Z,96393.16
2022-10-25T09:31:26.430Z,96392.19
2022-10-25T09:32:38.360Z,96397.59
2022-10-25T09:33:45.822Z,96397.06
2022-10-25T09:34:51.713Z,96395.44
2022-10-25T09:35:57.530Z,96395.38
2022-10-25T09:37:12.877Z,96395.66
2022-10-25T09:38:24.345Z,96393.25
2022-10-25T09:39:37.660Z,96388.59
2022-10-25T09:40:50.178Z,96391.50
2022-10-25T09:41:58.740Z,96394.22
2022-10-25T09:43:18.126Z,96393.66
2022-10-25T09:44:39.465Z,96391.06
2022-10-25T09:45:52.544Z,96388.59
2022-10-25T09:47:03.387Z,96380.34
2022-10-25T09:48:15.730Z,96390.00
2022-10-25T09:49:25.729Z,96390.78
2022-10-25T09:50:35.472Z,96391.25
2022-10-25T09:51:48.732Z,96395.06
2022-10-25T09:53:06.948Z,96401.00
2022-10-25T09:54:38.071Z,96390.16
2022-10-25T09:55:54.362Z,96396.47
2022-10-25T09:56:57.654Z,96405.66
2022-10-25T09:58:06.499Z,96390.78
2022-10-25T09:59:14.928Z,96397.53
2022-10-25T10:00:21.125Z,96401.38
2022-10-25T10:01:32.039Z,96382.69
2022-10-25T10:02:35.444Z,96384.31
2022-10-25T10:03:41.704Z,96390.63
2022-10-25T10:04:47.672Z,96383.50
2022-10-25T10:05:57.658Z,96381.38
2022-10-25T10:07:07.563Z,96392.97
2022-10-25T10:08:16.347Z,96385.44
2022-10-25T10:09:22.066Z,96388.72
2022-10-25T11:13:57.561Z,96357.72
2022-10-25T11:14:59.675Z,96366.19
2022-10-25T11:16:24.307Z,96359.53
2022-10-25T11:17:39.066Z,96359.16
2022-10-25T11:18:55.296Z,96355.34
2022-10-25T11:20:21.330Z,96357.84
2022-10-25T11:21:40.421Z,96353.78
2022-10-25T11:23:02.723Z,96353.00
2022-10-25T11:24:14.996Z,96352.81
2022-10-25T11:25:30.364Z,96352.13
2022-10-25T11:26:48.458Z,96351.75
2022-10-25T11:28:04.109Z,96362.34
2022-10-25T11:29:15.575Z,96355.16
2022-10-25T11:30:21.877Z,96350.09
2022-10-25T11:31:35.167Z,96352.66
2022-10-25T11:33:10.088Z,96355.88
2022-10-25T11:34:23.829Z,96347.97
2022-10-25T11:35:47.921Z,96348.66
2022-10-25T11:37:01.812Z,96345.16
2022-10-25T11:38:14.513Z,96342.72
2022-10-25T11:39:36.327Z,96348.03
2022-10-25T11:40:43.847Z,96342.16
2022-10-25T11:41:49.686Z,96351.59
2022-10-25T11:43:23.122Z,96345.91
2022-10-25T11:44:48.415Z,96340.56
2022-10-25T11:46:02.187Z,96343.13
2022-10-25T11:47:10.090Z,96346.88
2022-10-25T11:48:44.247Z,96352.84
2022-10-25T11:49:58.968Z,96344.84
2022-10-25T11:51:12.466Z,96346.19
2022-10-25T11:52:47.169Z,96340.34
2022-10-25T11:54:11.181Z,96340.50
2022-10-25T11:55:30.342Z,96342.97
2022-10-25T11:56:44.805Z,96339.19
2022-10-25T11:57:55.708Z,96343.00
2022-10-25T11:59:09.844Z,96340.91
2022-10-25T12:00:20.144Z,96339.47
2022-10-25T12:01:45.311Z,96339.41
2022-10-25T12:03:13.275Z,96342.38
2022-10-25T12:04:44.502Z,96335.34
2022-10-25T12:05:56.025Z,96342.44
2022-10-25T12:07:09.518Z,96343.47
2022-10-25T12:08:29.215Z,96346.63
2022-10-25T12:09:44.352Z,96342.31
2022-10-25T12:10:52.783Z,96342.88
2022-10-25T12:12:02.788Z,96343.09
2022-10-25T12:13:15.028Z,96347.56
2022-10-25T12:14:26.954Z,96348.69
2022-10-25T12:15:40.358Z,96350.88
2022-10-25T12:16:43.599Z,96356.44
2022-10-25T12:17:48.975Z,96350.00
2022-10-25T12:18:59.885Z,96350.19
2022-10-25T12:20:08.344Z,96343.44
2022-10-25T12:21:19.051Z,96349.25
2022-10-25T12:22:24.812Z,96349.09
2022-10-25T12:23:32.990Z,96343.94
2022-10-25T12:24:42.233Z,96341.69
2022-10-25T12:25:51.531Z,96346.59
2022-10-25T12:26:55.854Z,96350.41
2022-10-25T12:28:07.447Z,96346.88
2022-10-25T12:29:20.255Z,96345.09
2022-10-25T12:31:58.206Z,96342.81
2022-10-25T12:33:13.347Z,96338.22
2022-10-25T12:34:24.700Z,96341.88
2022-10-25T12:35:31.546Z,96343.16
2022-10-25T12:36:40.951Z,96344.63
2022-10-25T12:37:49.651Z,96351.56
2022-10-25T12:38:55.324Z,96345.66
2022-10-25T12:39:57.939Z,96346.16
2022-10-25T12:41:08.840Z,96337.38
2022-10-25T12:42:19.389Z,96347.88
2022-10-25T12:43:32.754Z,96347.22
2022-10-25T12:45:03.331Z,96337.41
2022-10-25T12:46:42.516Z,96342.13
2022-10-25T12:48:02.920Z,96338.22
2022-10-25T12:49:33.378Z,96339.34
2022-10-25T12:51:04.158Z,96327.66
2022-10-25T12:52:26.350Z,96325.97
2022-10-25T12:53:59.874Z,96321.66
2022-10-25T12:55:29.066Z,96324.91
2022-10-25T12:56:49.175Z,96317.69
2022-10-25T12:58:02.823Z,96316.41
2022-10-25T12:59:17.731Z,96314.31
2022-10-25T13:00:24.553Z,96318.41
2022-10-25T13:01:51.416Z,96304.63
2022-10-25T13:03:40.221Z,96308.84
2022-10-25T13:04:58.156Z,96301.84
2022-10-25T13:06:25.455Z,96298.91
2022-10-25T13:07:38.633Z,96311.84
2022-10-25T13:08:45.563Z,96317.06
2022-10-25T13:09:52.052Z,96321.88
2022-10-25T13:11:11.590Z,96310.94
2022-10-25T13:12:30.756Z,96304.88
2022-10-25T13:13:39.497Z,96315.63
2022-10-25T13:14:51.289Z,96321.03
2022-10-25T13:15:59.748Z,96316.13
2022-10-25T13:17:37.714Z,96304.91
2022-10-25T13:19:14.658Z,96300.94
2022-10-25T13:21:07.434Z,96291.50
2022-10-25T13:22:41.829Z,96300.59
2022-10-25T13:24:06.997Z,96301.72
2022-10-25T13:25:45.505Z,96307.22
2022-10-25T13:27:23.968Z,96298.69
2022-10-25T13:28:38.657Z,96311.22
2022-10-25T13:30:25.289Z,96312.63
2022-10-25T13:31:59.474Z,96312.28
2022-10-25T13:33:43.569Z,96309.28
2022-10-25T13:34:53.020Z,96310.06
2022-10-25T13:36:14.254Z,96309.13
2022-10-25T13:37:43.392Z,96311.59
2022-10-25T13:39:09.920Z,96312.25
2022-10-25T13:40:30.360Z,96304.94
2022-10-25T13:41:47.707Z,96307.19
2022-10-25T13:43:01.545Z,96305.69
2022-10-25T13:44:08.915Z,96305.84
2022-10-25T13:45:33.728Z,96311.63
2022-10-25T13:46:44.979Z,96306.81
2022-10-25T13:47:52.623Z,96301.97
2022-10-25T13:49:11.618Z,96306.56
2022-10-25T13:50:26.708Z,96313.28
2022-10-25T13:51:46.426Z,96316.63
2022-10-25T13:53:04.856Z,96312.84
2022-10-25T13:54:16.025Z,96313.19
2022-10-25T13:55:27.436Z,96307.56
2022-10-25T14:00:51.086Z,96307.47
2022-10-25T14:02:13.857Z,96309.16
2022-10-25T14:03:30.980Z,96307.25
2022-10-25T14:04:52.213Z,96303.28
2022-10-25T14:06:12.185Z,96301.41
2022-10-25T14:07:52.474Z,96296.72
2022-10-25T14:09:18.292Z,96301.09
2022-10-25T14:10:40.315Z,96297.00
2022-10-25T14:11:51.520Z,96291.38
2022-10-25T14:13:10.748Z,96289.75
2022-10-25T14:14:23.165Z,96286.78
2022-10-25T14:15:47.512Z,96289.41
2022-10-25T14:17:03.742Z,96278.28
2022-10-25T14:18:19.778Z,96282.91
2022-10-25T14:19:31.935Z,96288.88
2022-10-25T14:20:41.628Z,96284.50
2022-10-25T14:21:53.934Z,96286.84
2022-10-25T14:23:06.109Z,96277.38
2022-10-25T14:24:19.505Z,96281.97
2022-10-25T14:25:37.417Z,96281.00
2022-10-25T14:26:56.209Z,96273.97
2022-10-25T14:28:20.625Z,96275.97
2022-10-25T14:29:28.536Z,96270.81
2022-10-25T14:30:37.369Z,96278.84
2022-10-25T14:31:43.310Z,96266.53
2022-10-25T14:32:54.621Z,96274.13
2022-10-25T14:34:03.445Z,96278.38
2022-10-25T14:35:13.612Z,96266.66
2022-10-25T14:36:29.714Z,96270.91
2022-10-25T14:37:33.779Z,96262.53
2022-10-25T14:39:04.683Z,96272.03
2022-10-25T14:40:18.455Z,96269.38
2022-10-25T14:41:30.675Z,96281.06
2022-10-25T14:42:34.026Z,96261.69
2022-10-25T14:43:57.538Z,96271.97
2022-10-25T14:45:09.892Z,96275.75
2022-10-25T14:46:20.405Z,96277.84
2022-10-25T14:47:30.904Z,96275.56
2022-10-25T14:48:37.339Z,96274.69
2022-10-25T14:49:42.656Z,96269.38
2022-10-25T14:50:50.774Z,96269.22
2022-10-25T14:52:01.573Z,96262.06
2022-10-25T14:53:17.090Z,96269.13
2022-10-25T14:54:30.335Z,96268.88
2022-10-25T14:55:37.186Z,96267.66
2022-10-25T14:56:54.482Z,96261.44
2022-10-25T14:58:04.391Z,96259.03
2022-10-25T14:59:31.951Z,96261.91
2022-10-25T15:00:38.028Z,96258.88
2022-10-25T15:01:47.736Z,96259.78
2022-10-25T15:02:58.570Z,96264.38
2022-10-25T15:04:05.621Z,96253.63
2022-10-25T15:05:17.683Z,96256.72
2022-10-25T15:06:30.668Z,96255.09
2022-10-25T15:07:36.629Z,96257.16
2022-10-25T15:08:49.157Z,96256.75
2022-10-25T15:10:01.394Z,96254.09
2022-10-25T15:11:10.271Z,96252.97
2022-10-25T15:12:21.525Z,96268.31
2022-10-25T15:13:28.372Z,96259.81
2022-10-25T15:14:33.706Z,96264.16
2022-10-25T15:15:42.449Z,96267.13
2022-10-25T15:16:49.894Z,96260.72
2022-10-25T15:17:54.175Z,96256.47
2022-10-25T15:19:23.234Z,96264.22
2022-10-25T15:20:29.487Z,96267.13
2022-10-25T15:21:44.301Z,96263.75
2022-10-25T15:22:51.843Z,96267.25